Time;durP1;ratioP1;P1;durP2;ratioP2;P2;SDS_P1;SDS_P2;PMS_P1;PMS_P2;Temp;Humidity;BMP_temperature;BMP_pressure;BME280_temperature;BME280_humidity;BME280_pressure;Samples;Min_cycle;Max_cycle;Signal;HPM_P1;HPM_P2
2022/04/19 00:01:10;;;;;;;10.07;5.97;;;12.10;63.90;;;;;;5075851;28;20044;-71
2022/04/19 00:03:36;;;;;;;7.68;4.95;;;12.10;66.60;;;;;;5075818;28;20070;-71
2022/04/19 00:06:02;;;;;;;11.50;6.20;;;12.00;69.90;;;;;;5075884;28;20036;-71
2022/04/19 00:08:28;;;;;;;8.60;5.93;;;11.90;68.60;;;;;;5075693;28;20538;-71
2022/04/19 00:10:54;;;;;;;8.85;5.88;;;11.90;67.50;;;;;;5075763;28;20071;-71
2022/04/19 00:13:20;;;;;;;8.63;5.75;;;11.80;67.70;;;;;;5075923;28;20054;-71
2022/04/19 00:15:46;;;;;;;10.68;6.55;;;11.80;71.00;;;;;;5075672;28;20123;-72
2022/04/19 00:18:12;;;;;;;11.45;7.03;;;11.70;71.10;;;;;;5075659;28;20032;-71
2022/04/19 00:20:42;;;;;;;10.60;6.55;;;11.70;72.60;;;;;;5075392;28;20069;-71
2022/04/19 00:23:15;;;;;;;12.80;6.72;;;11.60;72.50;;;;;;5075594;28;20048;-71
2022/04/19 00:25:46;;;;;;;11.48;6.25;;;11.50;74.90;;;;;;5075622;28;20044;-71
2022/04/19 00:28:13;;;;;;;8.02;5.18;;;11.50;76.20;;;;;;5075483;28;20432;-71
2022/04/19 00:30:40;;;;;;;7.15;5.18;;;11.40;76.60;;;;;;5075662;28;20449;-71
2022/04/19 00:33:07;;;;;;;8.60;5.43;;;11.40;78.50;;;;;;5075957;28;20044;-71
2022/04/19 00:35:33;;;;;;;9.23;5.45;;;11.30;78.00;;;;;;5075465;28;20044;-71
2022/04/19 00:37:59;;;;;;;9.85;5.40;;;11.30;78.50;;;;;;5075340;28;20047;-72
2022/04/19 00:40:25;;;;;;;8.00;5.03;;;11.20;78.60;;;;;;5075287;28;20043;-71
2022/04/19 00:42:54;;;;;;;6.68;5.03;;;11.20;81.10;;;;;;5075324;28;20078;-71
2022/04/19 00:45:20;;;;;;;6.43;4.65;;;11.10;85.30;;;;;;5075452;28;20055;-71
2022/04/19 00:47:45;;;;;;;9.10;5.35;;;11.00;85.20;;;;;;5074603;28;20102;-71
2022/04/19 00:50:11;;;;;;;6.88;4.97;;;10.90;89.00;;;;;;5075200;28;20043;-71
2022/04/19 00:52:38;;;;;;;8.57;5.25;;;10.80;90.20;;;;;;5075180;28;20105;-71
2022/04/19 00:55:07;;;;;;;9.63;5.40;;;10.80;90.40;;;;;;5075154;28;20447;-71
2022/04/19 00:57:36;;;;;;;7.57;5.30;;;10.70;90.10;;;;;;5075208;28;20056;-71
2022/04/19 01:00:03;;;;;;;8.63;5.07;;;10.70;90.90;;;;;;5075072;28;20070;-71
2022/04/19 01:02:31;;;;;;;8.73;5.20;;;10.60;89.80;;;;;;5074995;28;20052;-71
2022/04/19 01:04:57;;;;;;;7.78;4.75;;;10.60;89.90;;;;;;5075112;28;20032;-71
2022/04/19 01:07:22;;;;;;;7.63;5.40;;;10.50;91.00;;;;;;5075314;28;20035;-71
2022/04/19 01:09:48;;;;;;;7.32;5.43;;;10.50;91.00;;;;;;5074993;28;20500;-71
2022/04/19 01:15:09;;;;;;;7.88;5.15;;;10.40;92.10;;;;;;5075014;28;20044;-71
2022/04/19 01:17:39;;;;;;;10.23;5.80;;;10.40;92.20;;;;;;5075212;28;20082;-71
2022/04/19 01:20:08;;;;;;;6.70;5.32;;;10.30;92.00;;;;;;5058114;28;20123;-71
2022/04/19 01:22:35;;;;;;;8.57;5.18;;;10.30;91.30;;;;;;5074808;28;20044;-71
2022/04/19 01:25:01;;;;;;;9.05;5.65;;;10.30;91.40;;;;;;5074887;28;20111;-71
2022/04/19 01:27:26;;;;;;;9.05;6.40;;;10.30;90.60;;;;;;5074895;28;20213;-71
2022/04/19 01:29:57;;;;;;;12.95;7.15;;;10.20;90.80;;;;;;5074735;28;20044;-71
2022/04/19 01:32:23;;;;;;;14.80;8.07;;;10.30;90.40;;;;;;5075157;28;20044;-71
2022/04/19 01:34:48;;;;;;;18.42;9.63;;;10.20;90.40;;;;;;5074804;28;20496;-71
2022/04/19 01:37:15;;;;;;;18.25;9.80;;;10.20;89.70;;;;;;5074964;28;20047;-71
2022/04/19 01:42:24;;;;;;;14.07;8.88;;;10.20;90.20;;;;;;5074619;28;20044;-71
2022/04/19 01:44:50;;;;;;;13.50;8.35;;;10.20;90.50;;;;;;5074631;28;20378;-71
2022/04/19 01:47:15;;;;;;;11.90;7.80;;;10.10;93.00;;;;;;5074685;28;20032;-71
2022/04/19 01:49:41;;;;;;;20.15;8.95;;;10.10;92.90;;;;;;5074884;28;20040;-71
2022/04/19 01:52:08;;;;;;;14.82;9.20;;;10.10;92.70;;;;;;5074928;28;20113;-71
2022/04/19 01:54:34;;;;;;;14.48;9.48;;;10.00;93.20;;;;;;5074829;28;20424;-71
2022/04/19 01:57:00;;;;;;;17.38;9.63;;;10.00;93.20;;;;;;5074598;28;20550;-71
2022/04/19 01:59:25;;;;;;;17.02;10.10;;;10.10;94.00;;;;;;5076399;28;20039;-71
2022/04/19 02:01:51;;;;;;;14.90;9.25;;;10.00;95.00;;;;;;5078339;28;20082;-71
2022/04/19 02:04:18;;;;;;;16.73;9.80;;;9.90;96.40;;;;;;5078105;28;20040;-71
2022/04/19 02:06:44;;;;;;;15.15;9.88;;;9.80;96.60;;;;;;5078174;28;20042;-71
2022/04/19 02:09:10;;;;;;;22.77;11.63;;;9.80;96.90;;;;;;5078273;28;20119;-71
2022/04/19 02:11:37;;;;;;;18.90;10.77;;;9.70;97.90;;;;;;5078037;28;20519;-71
2022/04/19 02:14:03;;;;;;;14.73;9.38;;;9.70;97.60;;;;;;5078054;28;20087;-71
2022/04/19 02:16:29;;;;;;;7.78;5.38;;;9.60;98.50;;;;;;5078044;28;20154;-71
2022/04/19 02:18:55;;;;;;;6.57;5.25;;;9.50;99.10;;;;;;5077914;28;20047;-71
2022/04/19 02:21:20;;;;;;;7.82;5.18;;;9.40;99.80;;;;;;5077865;28;20115;-71
2022/04/19 02:23:46;;;;;;;8.27;5.90;;;9.20;99.90;;;;;;5077888;28;20044;-71
2022/04/19 02:26:12;;;;;;;7.82;5.32;;;9.10;99.90;;;;;;5077864;28;20145;-71
2022/04/19 02:28:37;;;;;;;8.43;5.03;;;9.00;99.90;;;;;;5077629;28;21655;-71
2022/04/19 02:31:03;;;;;;;7.78;5.28;;;8.90;99.90;;;;;;5077728;28;20036;-71
2022/04/19 02:33:29;;;;;;;8.00;5.72;;;8.90;99.90;;;;;;5077699;28;20094;-70
2022/04/19 02:35:54;;;;;;;7.55;5.18;;;8.90;99.90;;;;;;5077566;28;20044;-70
2022/04/19 02:38:20;;;;;;;10.73;5.18;;;8.80;99.90;;;;;;5061103;28;20036;-71
2022/04/19 02:40:45;;;;;;;7.47;5.75;;;8.80;99.90;;;;;;5077768;28;20043;-71
2022/04/19 02:43:13;;;;;;;8.75;5.78;;;8.70;99.90;;;;;;5078066;28;20374;-71
2022/04/19 02:45:39;;;;;;;7.30;5.78;;;8.70;99.90;;;;;;5077420;28;20392;-71
2022/04/19 02:48:06;;;;;;;7.63;5.43;;;8.70;99.90;;;;;;5077680;28;20040;-71
2022/04/19 02:50:33;;;;;;;8.18;5.57;;;8.70;99.90;;;;;;5077352;28;20107;-70
2022/04/19 02:53:03;;;;;;;8.85;5.68;;;8.70;99.90;;;;;;5060669;28;20051;-71
2022/04/19 02:55:28;;;;;;;8.35;5.72;;;8.70;99.90;;;;;;5060500;28;20512;-71
2022/04/19 02:57:55;;;;;;;10.40;7.43;;;8.70;99.90;;;;;;5077209;28;20119;-71
2022/04/19 03:00:20;;;;;;;18.52;11.40;;;8.70;99.90;;;;;;5077310;28;20028;-71
2022/04/19 03:02:46;;;;;;;23.35;14.85;;;8.70;99.90;;;;;;5077072;28;20405;-71
2022/04/19 03:05:12;;;;;;;20.60;14.23;;;8.60;99.90;;;;;;5077085;28;20067;-71
2022/04/19 03:07:38;;;;;;;15.27;11.18;;;8.60;99.90;;;;;;5077044;28;20051;-71
2022/04/19 03:10:06;;;;;;;14.85;10.68;;;8.60;99.90;;;;;;5076463;28;20044;-71
2022/04/19 03:12:31;;;;;;;13.77;8.93;;;8.60;99.90;;;;;;5077199;28;20036;-71
2022/04/19 03:14:57;;;;;;;11.25;7.97;;;8.60;99.90;;;;;;5076935;28;20603;-71
2022/04/19 03:17:22;;;;;;;12.88;7.72;;;8.60;99.90;;;;;;5076878;28;20446;-71
2022/04/19 03:19:48;;;;;;;11.10;7.72;;;8.70;99.90;;;;;;5076972;28;20040;-71
2022/04/19 03:22:14;;;;;;;14.20;7.57;;;8.70;99.90;;;;;;5060049;28;20566;-71
2022/04/19 03:27:41;;;;;;;13.50;7.18;;;8.70;99.90;;;;;;5076650;28;20040;-71
2022/04/19 03:30:09;;;;;;;17.42;7.45;;;8.70;99.90;;;;;;5076482;28;20069;-71
2022/04/19 03:32:36;;;;;;;9.05;6.85;;;8.70;99.90;;;;;;5076518;28;20050;-71
2022/04/19 03:35:02;;;;;;;11.85;7.38;;;8.70;99.90;;;;;;5076465;28;20044;-71
2022/04/19 03:37:30;;;;;;;13.63;7.57;;;8.70;99.90;;;;;;5059946;28;20044;-71
2022/04/19 03:39:56;;;;;;;10.25;7.22;;;8.70;99.90;;;;;;5076331;28;20040;-71
2022/04/19 03:42:21;;;;;;;12.40;7.85;;;8.60;99.90;;;;;;5076250;28;20047;-71
2022/04/19 03:44:47;;;;;;;11.05;7.03;;;8.60;99.90;;;;;;5076451;28;20036;-71
2022/04/19 03:47:12;;;;;;;9.70;7.30;;;8.60;99.90;;;;;;5076202;28;20390;-71
2022/04/19 03:49:44;;;;;;;10.57;7.25;;;8.60;99.90;;;;;;5076359;28;20047;-71
2022/04/19 03:52:10;;;;;;;12.15;7.00;;;8.60;99.90;;;;;;5076079;28;20492;-71
2022/04/19 03:54:37;;;;;;;9.73;6.85;;;8.50;99.90;;;;;;5076059;28;20043;-71
2022/04/19 03:57:09;;;;;;;11.57;6.70;;;8.50;99.90;;;;;;5076055;28;20458;-71
2022/04/19 03:59:41;;;;;;;11.68;7.43;;;8.50;99.90;;;;;;5075935;28;20092;-71
2022/04/19 04:02:07;;;;;;;14.03;7.57;;;8.50;99.90;;;;;;5075964;28;20090;-71
2022/04/19 04:04:35;;;;;;;11.45;7.32;;;8.40;99.90;;;;;;5076122;28;20036;-71
2022/04/19 04:07:05;;;;;;;10.57;6.97;;;8.40;99.90;;;;;;5075878;28;20040;-71
2022/04/19 04:09:37;;;;;;;12.75;7.50;;;8.40;99.90;;;;;;5075754;28;20032;-71
2022/04/19 04:12:05;;;;;;;9.85;7.18;;;8.40;99.90;;;;;;5075831;28;20496;-71
2022/04/19 04:14:31;;;;;;;10.30;7.25;;;8.40;99.90;;;;;;5075694;28;20085;-71
2022/04/19 04:16:57;;;;;;;12.65;7.10;;;8.40;99.90;;;;;;5075695;28;20416;-71
2022/04/19 04:19:23;;;;;;;9.55;6.80;;;8.30;99.90;;;;;;5075862;28;20040;-71
2022/04/19 04:21:49;;;;;;;11.52;7.57;;;8.30;99.90;;;;;;5074937;28;20492;-71
2022/04/19 04:24:14;;;;;;;10.70;7.10;;;8.30;99.90;;;;;;5075613;28;20552;-71
2022/04/19 04:26:40;;;;;;;9.23;6.85;;;8.30;99.90;;;;;;5058894;28;20153;-71
2022/04/19 04:29:05;;;;;;;12.38;6.97;;;8.30;99.90;;;;;;5075434;28;20043;-71
2022/04/19 04:31:31;;;;;;;10.45;7.25;;;8.30;99.90;;;;;;5075522;28;20043;-71
2022/04/19 04:33:57;;;;;;;10.43;7.07;;;8.30;99.90;;;;;;5075423;28;20036;-71
2022/04/19 04:36:23;;;;;;;9.40;6.82;;;8.20;99.90;;;;;;5093575;28;20032;-71
2022/04/19 04:38:49;;;;;;;11.45;7.00;;;8.20;99.90;;;;;;5075393;28;20102;-71
2022/04/19 04:41:15;;;;;;;10.85;7.07;;;8.20;99.90;;;;;;5075323;28;20052;-71
2022/04/19 04:43:40;;;;;;;10.73;7.18;;;8.20;99.90;;;;;;5075252;28;20035;-71
2022/04/19 04:51:35;;;;;;;10.52;7.00;;;8.20;99.90;;;;;;5075482;28;20447;-71
2022/04/19 04:54:01;;;;;;;12.65;7.50;;;8.20;99.90;;;;;;5075252;28;20496;-71
2022/04/19 04:56:26;;;;;;;11.05;7.55;;;8.20;99.90;;;;;;5075193;28;20047;-71
2022/04/19 04:58:52;;;;;;;11.68;7.18;;;8.10;99.90;;;;;;5075286;28;20130;-71
2022/04/19 05:01:17;;;;;;;12.07;7.70;;;8.20;99.90;;;;;;5075263;28;20047;-71
2022/04/19 05:03:43;;;;;;;10.95;7.35;;;8.20;99.90;;;;;;5075398;28;20431;-71
2022/04/19 05:06:08;;;;;;;8.82;7.20;;;8.20;99.90;;;;;;5075093;28;20040;-71
2022/04/19 05:08:34;;;;;;;11.30;7.28;;;8.20;99.90;;;;;;5075256;28;20036;-71
2022/04/19 05:10:59;;;;;;;10.45;7.25;;;8.20;99.90;;;;;;5075014;28;20042;-71
2022/04/19 05:13:25;;;;;;;10.85;8.23;;;8.20;99.90;;;;;;5075583;28;20134;-71
2022/04/19 05:15:50;;;;;;;10.50;7.45;;;8.30;99.90;;;;;;5075743;28;20040;-71
2022/04/19 05:18:16;;;;;;;9.65;6.82;;;8.30;99.90;;;;;;5058254;28;20516;-71
2022/04/19 05:20:42;;;;;;;10.75;7.63;;;8.30;99.90;;;;;;5074707;28;20044;-71
2022/04/19 05:23:08;;;;;;;11.27;7.78;;;8.30;99.90;;;;;;5075194;28;20052;-71
2022/04/19 05:25:34;;;;;;;12.70;7.20;;;8.30;99.90;;;;;;5058252;28;20511;-71
2022/04/19 05:27:59;;;;;;;12.73;8.15;;;8.40;99.90;;;;;;5074858;28;20040;-71
2022/04/19 05:30:25;;;;;;;11.30;7.60;;;8.40;99.90;;;;;;5075031;28;20051;-71
2022/04/19 05:32:53;;;;;;;12.38;8.10;;;8.50;99.90;;;;;;5076163;28;20497;-71
2022/04/19 05:35:19;;;;;;;12.23;7.75;;;8.50;99.90;;;;;;5078712;28;20044;-71
2022/04/19 05:37:45;;;;;;;10.65;7.63;;;8.50;99.90;;;;;;5078751;28;20407;-71
2022/04/19 05:40:11;;;;;;;10.57;7.35;;;8.60;99.90;;;;;;5079308;28;20070;-71
2022/04/19 05:42:37;;;;;;;10.90;7.18;;;8.60;99.90;;;;;;5078608;28;20450;-71
2022/04/19 05:45:02;;;;;;;12.40;7.88;;;8.70;99.90;;;;;;5078757;28;20036;-71
2022/04/19 05:47:28;;;;;;;9.00;7.45;;;8.70;99.90;;;;;;5078472;28;20492;-71
2022/04/19 05:49:54;;;;;;;11.57;7.85;;;8.80;99.90;;;;;;5061792;28;20085;-71
2022/04/19 05:52:19;;;;;;;11.00;7.50;;;8.80;99.90;;;;;;5078391;28;20048;-70
2022/04/19 05:54:45;;;;;;;9.02;7.07;;;8.90;99.90;;;;;;5078370;28;20066;-72
2022/04/19 05:57:10;;;;;;;11.43;8.18;;;9.00;99.90;;;;;;5078323;28;20081;-71
2022/04/19 05:59:36;;;;;;;10.50;7.60;;;9.00;99.90;;;;;;5078201;28;20036;-70
2022/04/19 06:04:53;;;;;;;12.65;7.47;;;9.10;99.90;;;;;;5078216;28;20040;-70
2022/04/19 06:07:22;;;;;;;9.68;7.15;;;9.10;99.90;;;;;;5078491;28;20122;-70
2022/04/19 06:09:48;;;;;;;11.63;8.02;;;9.20;99.90;;;;;;5078019;28;20534;-70
2022/04/19 06:12:14;;;;;;;12.43;7.47;;;9.20;99.90;;;;;;5078148;28;20047;-70
2022/04/19 06:14:39;;;;;;;10.77;7.18;;;9.30;99.90;;;;;;5078298;28;20040;-71
2022/04/19 06:17:05;;;;;;;10.02;7.70;;;9.40;99.90;;;;;;5078577;28;20035;-70
2022/04/19 06:19:31;;;;;;;12.48;7.55;;;9.50;99.90;;;;;;5061305;28;20484;-70
2022/04/19 06:21:57;;;;;;;12.13;7.35;;;9.50;99.90;;;;;;5077914;28;20115;-70
2022/04/19 06:24:23;;;;;;;9.75;7.20;;;9.50;99.90;;;;;;5078098;28;20128;-70
2022/04/19 06:26:49;;;;;;;9.95;7.13;;;9.60;99.90;;;;;;5077914;28;20051;-70
2022/04/19 06:29:15;;;;;;;9.38;7.22;;;9.70;99.90;;;;;;5078085;28;20044;-70
2022/04/19 06:31:41;;;;;;;12.38;7.15;;;9.80;99.90;;;;;;5078013;28;20122;-70
2022/04/19 06:34:07;;;;;;;12.32;7.30;;;9.90;99.90;;;;;;5077840;28;20040;-70
2022/04/19 06:36:33;;;;;;;9.90;7.32;;;9.90;99.90;;;;;;5061460;28;20150;-70
2022/04/19 06:38:59;;;;;;;10.30;7.03;;;10.00;99.90;;;;;;5077877;28;20040;-71
2022/04/19 06:41:25;;;;;;;10.88;6.93;;;10.00;99.90;;;;;;5077329;28;20044;-71
2022/04/19 06:43:51;;;;;;;9.90;6.57;;;10.10;99.90;;;;;;5077357;28;20123;-71
2022/04/19 06:46:18;;;;;;;9.52;6.35;;;10.20;99.90;;;;;;5076974;28;20549;-71
2022/04/19 06:48:43;;;;;;;11.32;6.53;;;10.30;99.90;;;;;;5077671;28;20117;-71
2022/04/19 06:51:09;;;;;;;9.35;7.25;;;10.40;99.90;;;;;;5077648;28;20127;-70
2022/04/19 06:53:36;;;;;;;10.25;6.55;;;10.40;99.90;;;;;;5044010;28;20489;-70
2022/04/19 06:56:04;;;;;;;9.63;7.00;;;10.60;99.90;;;;;;5077366;28;20043;-70
2022/04/19 06:58:30;;;;;;;8.38;6.35;;;10.70;99.90;;;;;;5060648;28;20070;-71
2022/04/19 07:00:56;;;;;;;9.95;6.63;;;10.80;99.90;;;;;;5077094;28;20497;-71
2022/04/19 07:03:24;;;;;;;10.00;6.30;;;10.90;99.90;;;;;;5077501;28;20036;-71
2022/04/19 07:05:50;;;;;;;10.85;6.75;;;11.00;99.90;;;;;;5077054;28;20043;-70
2022/04/19 07:08:15;;;;;;;12.52;6.32;;;11.10;99.90;;;;;;5077268;28;20492;-71
2022/04/19 07:10:41;;;;;;;9.57;6.55;;;11.30;99.90;;;;;;5076932;28;20115;-70
2022/04/19 07:13:07;;;;;;;9.85;6.30;;;11.40;99.90;;;;;;5077178;28;20039;-71
2022/04/19 07:15:32;;;;;;;10.82;6.05;;;11.40;99.90;;;;;;5076838;28;20536;-70
2022/04/19 07:17:58;;;;;;;8.63;5.82;;;11.50;99.90;;;;;;5076862;28;20039;-72
2022/04/19 07:28:35;;;;;;;9.43;6.13;;;12.00;99.90;;;;;;5076553;28;20500;-71
2022/04/19 07:31:04;;;;;;;7.97;5.47;;;12.10;99.90;;;;;;5076572;28;20040;-71
2022/04/19 07:33:31;;;;;;;10.23;6.13;;;12.20;99.90;;;;;;5059926;28;20048;-71
2022/04/19 07:35:57;;;;;;;10.30;6.10;;;12.30;99.90;;;;;;5076450;28;20419;-71
2022/04/19 07:38:23;;;;;;;8.63;5.50;;;12.50;99.90;;;;;;5076453;28;20070;-71
2022/04/19 07:40:49;;;;;;;9.38;5.15;;;12.60;99.90;;;;;;5076289;28;20040;-71
2022/04/19 07:43:15;;;;;;;7.75;5.32;;;12.80;99.90;;;;;;5076487;28;20032;-71
2022/04/19 07:45:41;;;;;;;9.20;4.93;;;12.90;99.40;;;;;;5076241;28;20502;-71
2022/04/19 07:48:07;;;;;;;7.25;4.78;;;13.00;98.90;;;;;;5076239;28;20040;-71
2022/04/19 07:50:38;;;;;;;6.82;4.47;;;13.10;98.90;;;;;;5076169;28;20038;-71
2022/04/19 07:53:04;;;;;;;9.57;4.32;;;13.30;98.40;;;;;;5076227;28;20047;-71
2022/04/19 07:55:29;;;;;;;8.02;4.28;;;13.50;96.40;;;;;;5076381;28;20036;-71
2022/04/19 07:57:55;;;;;;;8.52;4.30;;;13.60;95.60;;;;;;5076031;28;20093;-71
2022/04/19 08:00:21;;;;;;;6.43;3.80;;;13.80;93.80;;;;;;5075968;28;20032;-71
2022/04/19 08:02:47;;;;;;;5.90;4.30;;;13.90;92.30;;;;;;5075860;28;20044;-71
2022/04/19 08:05:13;;;;;;;7.72;4.70;;;14.00;91.80;;;;;;5075887;28;20051;-71
2022/04/19 08:07:39;;;;;;;8.02;4.68;;;14.20;90.50;;;;;;5075850;28;20040;-71
2022/04/19 08:10:05;;;;;;;9.90;4.55;;;14.30;91.30;;;;;;5059422;28;20046;-70
2022/04/19 08:12:32;;;;;;;6.88;4.75;;;14.50;90.90;;;;;;5075800;28;20043;-70
2022/04/19 08:14:59;;;;;;;6.78;4.45;;;14.60;89.00;;;;;;5076050;28;20519;-71
2022/04/19 08:17:24;;;;;;;5.97;4.03;;;14.60;83.90;;;;;;5075721;28;20047;-71
2022/04/19 08:19:50;;;;;;;8.02;4.38;;;14.70;84.20;;;;;;5075632;28;20035;-71
2022/04/19 08:22:16;;;;;;;7.43;4.95;;;14.80;85.30;;;;;;5058928;28;20070;-71
2022/04/19 08:24:42;;;;;;;7.65;4.35;;;14.90;87.40;;;;;;5075629;28;20035;-71
2022/04/19 08:27:08;;;;;;;8.27;5.10;;;15.00;86.20;;;;;;5075831;28;20048;-71
2022/04/19 08:29:33;;;;;;;6.30;4.63;;;15.20;86.30;;;;;;5075472;28;20046;-71
2022/04/19 08:31:59;;;;;;;6.60;4.18;;;15.40;81.40;;;;;;5075441;28;20071;-71
2022/04/19 08:34:25;;;;;;;6.47;4.35;;;15.60;78.50;;;;;;5075519;28;20040;-71
2022/04/19 08:36:53;;;;;;;7.40;4.78;;;15.70;79.50;;;;;;5075439;28;20073;-71
2022/04/19 08:39:19;;;;;;;7.55;4.80;;;15.80;78.10;;;;;;5058817;28;20040;-71
2022/04/19 08:41:46;;;;;;;7.65;4.35;;;15.90;76.40;;;;;;5075574;28;20557;-71
2022/04/19 08:44:12;;;;;;;6.22;4.05;;;15.90;78.50;;;;;;5075281;28;20062;-71
2022/04/19 08:46:41;;;;;;;6.03;3.60;;;16.10;70.50;;;;;;5075302;28;20035;-71
2022/04/19 08:49:08;;;;;;;6.05;4.13;;;16.20;69.00;;;;;;5076267;28;20091;-72
2022/04/19 08:51:35;;;;;;;8.10;4.47;;;16.30;67.90;;;;;;5075288;28;20047;-71
2022/04/19 08:59:32;;;;;;;7.25;4.18;;;16.70;67.10;;;;;;5075329;28;20044;-71
2022/04/19 09:01:59;;;;;;;7.82;4.35;;;16.80;64.70;;;;;;5075114;28;20431;-71
2022/04/19 09:04:25;;;;;;;5.68;3.80;;;16.90;63.50;;;;;;5075122;28;20036;-71
2022/04/19 09:06:56;;;;;;;6.55;3.20;;;17.10;61.70;;;;;;5075579;28;20036;-71
2022/04/19 09:09:26;;;;;;;5.07;2.75;;;17.20;59.40;;;;;;5081673;28;20400;-71
2022/04/19 09:11:52;;;;;;;6.80;3.05;;;17.20;59.00;;;;;;5082255;28;20401;-71
2022/04/19 09:14:18;;;;;;;4.78;2.85;;;17.30;59.00;;;;;;5081701;28;20520;-71
2022/04/19 09:16:45;;;;;;;4.05;2.60;;;17.30;57.50;;;;;;5081635;28;20079;-72
2022/04/19 09:19:25;;;;;;;4.07;2.75;;;17.50;57.90;;;;;;5082151;28;20042;-71
2022/04/19 09:21:51;;;;;;;5.82;2.55;;;17.50;56.70;;;;;;5081622;28;20085;-71
2022/04/19 09:24:21;;;;;;;6.50;2.58;;;17.70;56.10;;;;;;5081662;28;20032;-71
2022/04/19 09:26:50;;;;;;;5.22;2.40;;;17.70;54.80;;;;;;5081582;28;20400;-72
2022/04/19 09:29:24;;;;;;;5.43;2.65;;;17.70;54.50;;;;;;5081485;28;20039;-71
2022/04/19 09:31:52;;;;;;;6.25;3.05;;;17.70;54.00;;;;;;5081570;28;20385;-71
2022/04/19 09:34:36;;;;;;;5.72;2.63;;;17.70;53.00;;;;;;5081506;28;20504;-71
2022/04/19 09:37:07;;;;;;;3.95;2.03;;;17.90;52.80;;;;;;5081512;28;20036;-72
2022/04/19 09:39:36;;;;;;;4.35;1.77;;;18.10;50.00;;;;;;5081675;28;20047;-71
2022/04/19 09:42:13;;;;;;;2.17;1.30;;;18.30;48.90;;;;;;5081555;28;20043;-71
2022/04/19 09:44:44;;;;;;;3.75;1.50;;;18.40;46.50;;;;;;5081365;28;20043;-71
2022/04/19 09:47:11;;;;;;;5.70;1.52;;;18.30;45.80;;;;;;5081417;28;20089;-71
2022/04/19 09:49:44;;;;;;;2.67;1.30;;;18.50;46.30;;;;;;5081323;28;20114;-71
2022/04/19 09:52:14;;;;;;;;;;;18.60;45.10;;;;;;5081771;28;20048;-71
2022/04/19 09:54:42;;;;;;;2.67;1.20;;;18.90;41.90;;;;;;5081381;28;19923;-71
2022/04/19 09:57:11;;;;;;;4.85;1.20;;;18.90;42.80;;;;;;5081324;28;20051;-71
2022/04/19 09:59:44;;;;;;;3.83;1.00;;;18.90;42.50;;;;;;5081294;28;20123;-71
2022/04/19 10:10:26;;;;;;;7.03;1.30;;;19.40;41.60;;;;;;5081158;28;20496;-71
2022/04/19 10:12:53;;;;;;;3.13;1.10;;;19.60;41.00;;;;;;5082057;28;20071;-71
2022/04/19 10:15:19;;;;;;;4.85;1.50;;;19.60;40.90;;;;;;5081018;28;20048;-71
2022/04/19 10:17:46;;;;;;;3.85;1.60;;;19.70;41.60;;;;;;5081148;28;20072;-71
2022/04/19 10:20:13;;;;;;;4.18;1.80;;;19.80;41.50;;;;;;5077632;28;20118;-74
2022/04/19 10:22:47;;;;;;;2.60;1.65;;;19.90;41.30;;;;;;5077849;28;20044;-73
2022/04/19 10:25:13;;;;;;;4.72;1.40;;;19.90;40.80;;;;;;5077855;28;20044;-73
2022/04/19 10:27:39;;;;;;;5.45;1.48;;;19.90;41.60;;;;;;5078066;28;20097;-73
2022/04/19 10:30:06;;;;;;;3.75;1.40;;;20.00;42.50;;;;;;5078040;28;20571;-74
2022/04/19 10:32:35;;;;;;;2.28;1.58;;;20.10;41.30;;;;;;5077494;28;20040;-71
2022/04/19 10:35:04;;;;;;;4.63;1.77;;;20.30;40.90;;;;;;5078004;28;20085;-71
2022/04/19 10:37:30;;;;;;;3.40;1.48;;;20.40;41.20;;;;;;5077622;28;20062;-72
2022/04/19 10:39:59;;;;;;;1.80;1.17;;;20.50;41.00;;;;;;5061139;28;20039;-72
2022/04/19 10:42:34;;;;;;;2.03;1.23;;;20.60;40.20;;;;;;5077626;28;20496;-71
2022/04/19 10:45:12;;;;;;;2.78;1.38;;;20.70;39.90;;;;;;5077429;28;20439;-71
2022/04/19 10:47:53;;;;;;;3.78;1.60;;;20.70;39.30;;;;;;5077493;28;20050;-71
2022/04/19 10:50:33;;;;;;;2.90;1.40;;;20.70;40.00;;;;;;5077637;28;20036;-72
2022/04/19 10:53:10;;;;;;;1.80;1.30;;;20.90;40.40;;;;;;5077461;28;20453;-71
2022/04/19 10:56:01;;;;;;;3.15;1.30;;;21.00;41.00;;;;;;5077375;28;20071;-71
2022/04/19 10:58:41;;;;;;;4.82;1.60;;;21.10;39.70;;;;;;5077447;28;20109;-72
2022/04/19 11:01:26;;;;;;;4.40;1.50;;;21.10;40.50;;;;;;5077178;28;20508;-72
2022/04/19 11:03:52;;;;;;;3.33;1.45;;;21.30;40.80;;;;;;5077475;28;20105;-72
2022/04/19 11:06:35;;;;;;;2.85;1.55;;;21.50;40.70;;;;;;5077150;28;20519;-71
2022/04/19 11:09:06;;;;;;;3.78;1.52;;;21.70;40.90;;;;;;5077282;28;20044;-72
2022/04/19 11:11:45;;;;;;;4.88;1.17;;;21.80;39.90;;;;;;5076898;28;20504;-72
2022/04/19 11:14:38;;;;;;;4.70;1.48;;;21.80;39.80;;;;;;5076883;28;20458;-71
2022/04/19 11:17:21;;;;;;;5.72;1.40;;;21.90;39.40;;;;;;5077698;28;20047;-72
2022/04/19 11:20:14;;;;;;;4.95;1.33;;;21.90;39.30;;;;;;5076720;28;20501;-72
2022/04/19 11:22:48;;;;;;;2.08;0.90;;;22.00;39.60;;;;;;5076893;28;20047;-72
2022/04/19 11:25:15;;;;;;;3.55;1.10;;;22.10;40.10;;;;;;5076754;28;20040;-72
2022/04/19 11:27:53;;;;;;;2.08;1.30;;;22.10;40.40;;;;;;5076936;28;20407;-72
2022/04/19 11:30:22;;;;;;;4.82;1.30;;;21.90;39.70;;;;;;5076240;28;20077;-72
2022/04/19 11:32:53;;;;;;;3.35;1.30;;;21.90;40.50;;;;;;5076626;28;20051;-72
2022/04/19 11:35:19;;;;;;;1.92;1.50;;;21.80;39.80;;;;;;5076597;28;20052;-72
2022/04/19 11:37:45;;;;;;;3.10;1.60;;;21.80;39.70;;;;;;5076479;28;20047;-72
2022/04/19 11:48:50;;;;;;;4.03;1.63;;;22.20;40.10;;;;;;5076187;28;20044;-72
2022/04/19 11:51:18;;;;;;;1.58;1.17;;;22.10;38.80;;;;;;5076463;28;20043;-72
2022/04/19 11:53:44;;;;;;;3.42;1.70;;;22.20;39.70;;;;;;5076090;28;20044;-72
2022/04/19 11:56:10;;;;;;;3.42;1.88;;;22.20;38.90;;;;;;5076790;28;20083;-72
2022/04/19 11:58:36;;;;;;;3.50;1.60;;;22.20;39.50;;;;;;5075975;28;20075;-72
2022/04/19 12:01:07;;;;;;;4.88;1.70;;;22.40;39.70;;;;;;5075912;28;20048;-72
2022/04/19 12:03:39;;;;;;;3.78;1.50;;;22.40;39.00;;;;;;5075951;28;20051;-72
2022/04/19 12:06:10;;;;;;;4.10;1.58;;;22.30;39.10;;;;;;5075926;28;20349;-72
2022/04/19 12:08:44;;;;;;;3.67;1.52;;;22.50;38.50;;;;;;5059143;28;20457;-72
2022/04/19 12:11:16;;;;;;;3.13;1.63;;;22.60;38.90;;;;;;5075890;28;20047;-72
2022/04/19 12:13:52;;;;;;;3.90;1.85;;;22.70;38.40;;;;;;5075820;28;20080;-73
2022/04/19 12:16:34;;;;;;;3.58;1.48;;;22.70;38.30;;;;;;5075998;28;20036;-72
2022/04/19 12:19:12;;;;;;;3.03;1.70;;;22.90;37.90;;;;;;5075744;28;20044;-72
2022/04/19 12:21:45;;;;;;;2.80;2.20;;;22.90;37.60;;;;;;5075503;28;20561;-71
2022/04/19 12:24:20;;;;;;;6.38;2.10;;;22.90;38.30;;;;;;5075632;28;20036;-72
2022/04/19 12:27:06;;;;;;;4.68;2.08;;;22.90;38.40;;;;;;5075585;28;20085;-72
2022/04/19 12:29:51;;;;;;;6.32;2.40;;;23.00;38.70;;;;;;5075506;28;20047;-72
2022/04/19 12:32:17;;;;;;;5.22;1.92;;;23.10;39.00;;;;;;5058803;28;20443;-72
2022/04/19 12:34:43;;;;;;;2.80;1.70;;;23.10;38.90;;;;;;5075453;28;20036;-72
2022/04/19 12:37:13;;;;;;;7.82;1.75;;;23.20;39.10;;;;;;5075387;28;20036;-71
2022/04/19 12:39:39;;;;;;;6.10;1.95;;;23.00;38.50;;;;;;5075254;28;20515;-72
2022/04/19 12:42:07;;;;;;;3.42;1.60;;;22.90;38.10;;;;;;5074755;28;20409;-72
2022/04/19 12:44:35;;;;;;;5.40;1.70;;;22.90;38.40;;;;;;5075880;28;20119;-72
2022/04/19 12:47:08;;;;;;;2.47;1.58;;;22.80;38.40;;;;;;5075576;28;20040;-72
2022/04/19 12:49:45;;;;;;;4.35;1.40;;;22.90;37.60;;;;;;5075168;28;20416;-72
2022/04/19 12:52:11;;;;;;;2.72;1.67;;;23.00;35.80;;;;;;5075325;28;20040;-72
2022/04/19 12:54:41;;;;;;;4.75;1.40;;;22.80;36.70;;;;;;5075507;28;20059;-72
2022/04/19 12:57:15;;;;;;;3.50;1.20;;;22.90;37.80;;;;;;5075154;28;20440;-72
2022/04/19 12:59:43;;;;;;;2.42;1.00;;;23.00;37.00;;;;;;5075171;28;20078;-72
2022/04/19 13:02:10;;;;;;;5.82;1.60;;;23.10;37.00;;;;;;5075150;28;20055;-72
2022/04/19 13:04:36;;;;;;;5.32;1.40;;;23.00;37.10;;;;;;5075127;28;20522;-72
2022/04/19 13:12:30;;;;;;;6.43;1.40;;;23.40;39.00;;;;;;5075340;28;20048;-72
2022/04/19 13:14:58;;;;;;;3.28;1.30;;;23.60;37.40;;;;;;5075063;28;20517;-73
2022/04/19 13:17:26;;;;;;;4.53;1.30;;;23.50;37.50;;;;;;5075082;28;20049;-72
2022/04/19 13:19:51;;;;;;;2.35;1.30;;;23.30;37.50;;;;;;5074934;28;20071;-73
2022/04/19 13:22:17;;;;;;;6.30;1.10;;;23.10;38.00;;;;;;5058266;28;20072;-72
2022/04/19 13:24:43;;;;;;;3.53;1.30;;;23.00;37.70;;;;;;5074917;28;20047;-72
2022/04/19 13:27:11;;;;;;;3.92;1.20;;;22.80;37.20;;;;;;5074900;28;20043;-72
2022/04/19 13:29:38;;;;;;;3.85;1.48;;;22.70;37.20;;;;;;5074910;28;20071;-72
2022/04/19 13:32:04;;;;;;;4.93;1.40;;;22.80;38.00;;;;;;5075177;28;20058;-72
2022/04/19 13:34:30;;;;;;;2.25;1.33;;;22.80;37.50;;;;;;5075008;28;20047;-71
2022/04/19 13:36:57;;;;;;;3.83;1.95;;;22.90;37.70;;;;;;5075093;28;20117;-71
2022/04/19 13:39:23;;;;;;;7.50;2.13;;;22.80;37.70;;;;;;5074897;28;20438;-71
2022/04/19 13:41:49;;;;;;;10.43;1.95;;;22.80;37.80;;;;;;5075474;28;20040;-71
2022/04/19 13:44:14;;;;;;;3.45;1.60;;;22.80;38.00;;;;;;5074852;28;20054;-71